Flight Track Log - Related Links

Times and Time Zones

All times are in EDT time to prevent confusion due to time zone crossing. See the N6198Q flight status page for this flight to view local times or setup timezone preferences in your user account.

Time Position Orientation Groundspeed Altitude Reporting Facility
EDT Latitude Longitude Course Direction KTS MPH feet Rate Location/Type
Sun 05:38:11 PM 26.0408 -81.6419 118° Southeast 92 106 2,500  Level Miami Center
Sun 05:39:13 PM 26.0317 -81.6197 115° Southeast 82 94 2,400  Descending Miami Center
Sun 05:40:15 PM 26.0211 -81.5981 118° Southeast 77 89 2,500  Climbing Miami Center
Sun 05:41:17 PM 26.0128 -81.5756 112° Southeast 77 89 2,400  Descending Miami Center
Sun 05:42:00 PM 26.0598 -81.5259 114° Southeast  Level Estimated
Sun 05:42:19 PM 26.0069 -81.5528 106° East 75 86 2,500  Level Miami Center
Sun 05:43:00 PM 26.0409 -81.4861 118° Southeast  Level FlightAware Approximate
Sun 05:43:21 PM 25.9997 -81.5308 110° East 75 86 2,500  Level Miami Center
Sun 05:44:23 PM 25.9869 -81.5083 122° Southeast 78 90 2,400 -97 Descending Miami Center
Sun 05:45:25 PM 25.9708 -81.4908 136° Southeast 77 89 2,300 97 Descending Miami Center
Sun 05:46:27 PM 25.9608 -81.4703 118° Southeast 77 89 2,600 194 Climbing Miami Center
Sun 05:47:29 PM 25.9458 -81.4500 129° Southeast 78 90 2,700 97 Climbing Miami Center
Sun 05:48:31 PM 25.9400 -81.4247 104° East 81 93 2,800 97 Climbing Miami Center
Sun 05:49:33 PM 25.9317 -81.4008 111° Southeast 78 90 2,900 48 Climbing Miami Center
Sun 05:50:35 PM 25.9250 -81.3767 107° East 84 97 2,900 48 Level Miami Center
Sun 05:51:37 PM 25.9158 -81.3522 113° Southeast 81 93 3,000 48 Climbing Miami Center
Sun 05:52:39 PM 25.9125 -81.3275 99° East 81 93 3,000  Level Miami Center
Sun 05:53:41 PM 25.9089 -81.3064 101° East 81 93 3,000  Level Miami Center
Sun 05:54:43 PM 25.8994 -81.2831 114° Southeast 81 93 3,000  Level Miami Center
Sun 05:56:46 PM 25.8772 -81.2336 117° Southeast 81 93 3,000  Level Miami Center
Sun 05:57:48 PM 25.8667 -81.2106 117° Southeast 82 94 3,000  Level Miami Center
Sun 05:59:00 PM 25.8648 -81.1764 107° East  Level FlightAware Approximate
Sun 06:06:00 PM 25.8135 -80.9881 107° East  Level FlightAware Approximate
Sun 06:07:00 PM 25.8063 -80.9612 107° East  Level FlightAware Approximate
Sun 06:08:00 PM 25.7991 -80.9343 107° East  Level FlightAware Approximate
Sun 06:09:00 PM 25.7918 -80.9074 107° East  Level FlightAware Approximate
Sun 06:10:00 PM 25.7846 -80.8804 107° East  Level FlightAware Approximate
Sun 06:11:00 PM 25.7774 -80.8535 107° East  Level FlightAware Approximate
Sun 06:12:00 PM 25.7702 -80.8266 107° East  Level FlightAware Approximate
Sun 06:13:00 PM 25.7629 -80.7997 107° East  Level FlightAware Approximate
Sun 06:14:00 PM 25.7557 -80.7728 107° East  Level FlightAware Approximate
Sun 06:15:00 PM 25.7484 -80.7459 107° East  Level FlightAware Approximate
Sun 06:16:00 PM 25.7412 -80.7190 107° East  Level FlightAware Approximate
Sun 06:17:00 PM 25.7339 -80.6921 107° East  Level FlightAware Approximate
Sun 06:18:00 PM 25.7267 -80.6652 107° East  Level FlightAware Approximate
Sun 06:19:00 PM 25.7194 -80.6383 107° East  Level FlightAware Approximate
Sun 06:20:00 PM 25.7121 -80.6114 107° East  Level FlightAware Approximate
Sun 06:21:00 PM 25.7048 -80.5845 107° East  Level FlightAware Approximate
Sun 06:22:00 PM 25.6937 -80.5604 138° Southeast  Level FlightAware Approximate
Sun 06:23:00 PM 25.6778 -80.5390 119° Southeast  Level FlightAware Approximate
Sun 06:24:00 PM 25.6659 -80.5143 110° East  Level FlightAware Approximate
Sun 06:25:00 PM 25.6571 -80.4880 110° East  Level FlightAware Approximate
Sun 06:26:00 PM 25.6483 -80.4617 110° East  Level FlightAware Approximate
Sun 06:27:00 PM 25.6396 -80.4354 110° East  Level FlightAware Approximate
Sun 06:28:00 PM 25.6476 -80.4332 110° East  Level Estimated
Sun 06:29:00 PM 25.6476 -80.4332 134° Southeast  Level Estimated
Sun 06:30:00 PM 25.6476 -80.4332 134° Southeast  Level Estimated
Sun 06:31:00 PM 25.6476 -80.4332 134° Southeast  Level Estimated
Sun 06:32:00 PM 25.6476 -80.4332 110° East  Level Estimated
Sun 06:33:00 PM 25.6476 -80.4332 134° Southeast  Level Estimated
Sun 06:34:00 PM 25.6476 -80.4332 134° Southeast  Level Estimated
Sun 06:35:00 PM 25.6476 -80.4332 134° Southeast  Level Estimated
Sun 06:36:00 PM 25.6476 -80.4332 110° East  Level Estimated
Sun 06:37:00 PM 25.6476 -80.4332 134° Southeast  Level Estimated
Sun 06:38:00 PM 25.6476 -80.4332 134° Southeast  Level Estimated
Sun 06:39:00 PM 25.6476 -80.4332 134° Southeast  Level Estimated
Sun 06:40:00 PM 25.6476 -80.4332 110° East  Level Estimated
Sun 06:41:00 PM 25.6476 -80.4332 134° Southeast  Level Estimated
Sun 06:42:00 PM 25.6476 -80.4332 134° Southeast  Level Estimated
Sun 06:43:00 PM 25.6476 -80.4332 134° Southeast  Level Estimated
Sun 06:44:00 PM 25.6476 -80.4332 110° East  Level Estimated
Sun 06:45:00 PM 25.6476 -80.4332 134° Southeast  Level Estimated

Login

Don't have an account? Register now (free) for customized features, flight alerts, and more!